createdAt,value
2022-08-17T00:01:51.716Z,16.83
2022-08-17T00:04:20.328Z,16.23
2022-08-17T00:06:48.699Z,15.20
2022-08-17T00:09:18.451Z,16.05
2022-08-17T00:12:34.699Z,14.98
2022-08-17T00:14:36.008Z,17.33
2022-08-17T00:17:04.606Z,15.57
2022-08-17T00:19:32.960Z,17.08
2022-08-17T00:22:31.048Z,15.65
2022-08-17T00:24:49.999Z,15.45
2022-08-17T00:27:17.273Z,15.27
2022-08-17T00:29:45.733Z,15.82
2022-08-17T00:33:11.593Z,16.73
2022-08-17T00:35:00.662Z,16.63
2022-08-17T00:37:27.934Z,16.27
2022-08-17T00:39:55.218Z,16.92
2022-08-17T00:42:23.242Z,15.20
2022-08-17T00:44:51.682Z,15.10
2022-08-17T00:47:18.824Z,16.45
2022-08-17T00:49:46.044Z,16.52
2022-08-17T00:52:15.568Z,16.33
2022-08-17T00:54:44.407Z,17.48
2022-08-17T00:57:13.519Z,17.02
2022-08-17T00:59:44.621Z,17.52
2022-08-17T01:04:39.452Z,17.25
2022-08-17T01:07:07.320Z,16.15
2022-08-17T01:09:34.670Z,16.17
2022-08-17T01:12:01.923Z,17.27
2022-08-17T01:14:29.098Z,16.52
2022-08-17T01:16:56.572Z,16.63
2022-08-17T01:19:28.802Z,18.90
2022-08-17T01:22:01.873Z,17.23
2022-08-17T01:24:29.079Z,16.58
2022-08-17T01:26:56.677Z,17.55
2022-08-17T01:29:25.143Z,15.75
2022-08-17T01:31:57.350Z,17.60
2022-08-17T01:34:35.249Z,17.40
2022-08-17T01:37:10.889Z,16.98
2022-08-17T01:39:42.073Z,17.15
2022-08-17T01:44:36.434Z,17.20
2022-08-17T01:47:06.581Z,17.92
2022-08-17T01:49:33.721Z,17.42
2022-08-17T01:52:05.395Z,18.15
2022-08-17T01:54:32.621Z,17.73
2022-08-17T01:56:59.865Z,16.40
2022-08-17T01:59:27.049Z,15.57
2022-08-17T02:01:54.217Z,16.40
2022-08-17T02:04:21.491Z,17.83
2022-08-17T02:06:53.321Z,17.90
2022-08-17T02:09:25.192Z,22.08
2022-08-17T02:11:54.113Z,20.58
2022-08-17T02:14:21.425Z,19.88
2022-08-17T02:16:48.601Z,16.10
2022-08-17T02:19:16.174Z,16.67
2022-08-17T02:21:45.438Z,17.25
2022-08-17T02:24:14.827Z,17.60
2022-08-17T02:26:42.133Z,17.38
2022-08-17T02:29:09.385Z,16.73
2022-08-17T02:31:36.522Z,16.00
2022-08-17T02:34:05.159Z,14.85
2022-08-17T02:36:36.286Z,13.48
2022-08-17T02:39:04.955Z,14.45
2022-08-17T02:41:32.139Z,14.75
2022-08-17T02:43:59.291Z,14.25
2022-08-17T02:46:26.893Z,13.05
2022-08-17T02:48:54.019Z,13.93
2022-08-17T02:51:21.255Z,14.50
2022-08-17T02:53:48.439Z,14.98
2022-08-17T02:56:15.633Z,15.18
2022-08-17T02:58:42.753Z,16.63
2022-08-17T03:01:10.867Z,16.65
2022-08-17T03:03:38.342Z,14.50
2022-08-17T03:06:05.788Z,14.68
2022-08-17T03:08:32.917Z,15.52
2022-08-17T03:11:00.419Z,15.50
2022-08-17T03:13:27.676Z,15.40
2022-08-17T03:15:54.858Z,13.57
2022-08-17T03:18:25.558Z,13.50
2022-08-17T03:23:24.044Z,15.77
2022-08-17T03:25:53.622Z,15.40
2022-08-17T03:28:21.743Z,14.93
2022-08-17T03:30:48.990Z,15.93
2022-08-17T03:33:16.857Z,14.20
2022-08-17T03:35:44.112Z,14.15
2022-08-17T03:38:15.181Z,15.98
2022-08-17T03:40:57.135Z,16.25
2022-08-17T03:43:26.813Z,16.88
2022-08-17T03:46:33.877Z,17.60
2022-08-17T03:49:18.687Z,15.98
2022-08-17T03:52:04.762Z,15.75
2022-08-17T03:54:50.771Z,18.20
2022-08-17T03:57:19.144Z,16.38
2022-08-17T03:59:46.755Z,17.00
2022-08-17T04:02:18.137Z,14.55
2022-08-17T04:04:45.400Z,14.32
2022-08-17T04:07:12.612Z,15.90
2022-08-17T04:09:39.794Z,20.05
2022-08-17T04:12:06.997Z,20.08
2022-08-17T04:14:51.659Z,18.33
2022-08-17T04:17:21.040Z,18.50
2022-08-17T04:19:48.123Z,17.88
2022-08-17T04:22:32.818Z,18.55
2022-08-17T04:25:30.449Z,17.45
2022-08-17T04:27:57.919Z,18.17
2022-08-17T04:30:25.891Z,14.52
2022-08-17T04:33:05.147Z,15.18
2022-08-17T04:35:35.567Z,13.30
2022-08-17T04:38:02.727Z,13.57
2022-08-17T04:40:48.666Z,12.68
2022-08-17T04:43:18.634Z,12.85
2022-08-17T04:45:55.671Z,11.95
2022-08-17T04:48:29.763Z,12.68
2022-08-17T04:51:14.954Z,11.52
2022-08-17T04:53:44.006Z,11.60
2022-08-17T04:56:16.205Z,12.80
2022-08-17T04:58:48.422Z,11.40
2022-08-17T05:01:23.337Z,12.98
2022-08-17T05:03:51.466Z,13.68
2022-08-17T05:06:18.594Z,11.75
2022-08-17T05:08:45.733Z,11.95
2022-08-17T05:11:12.886Z,12.82
2022-08-17T05:13:40.125Z,11.90
2022-08-17T05:16:08.975Z,11.25
2022-08-17T05:18:37.235Z,11.07
2022-08-17T05:21:04.452Z,11.23
2022-08-17T05:23:41.945Z,11.07
2022-08-17T05:26:21.970Z,11.93
2022-08-17T05:28:53.784Z,11.55
2022-08-17T05:31:21.634Z,11.15
2022-08-17T05:33:49.535Z,11.77
2022-08-17T05:36:42.632Z,10.90
2022-08-17T05:39:04.379Z,11.73
2022-08-17T05:41:31.528Z,11.90
2022-08-17T05:43:58.841Z,12.65
2022-08-17T05:46:27.951Z,11.85
2022-08-17T05:48:57.983Z,13.55
2022-08-17T05:51:40.398Z,11.95
2022-08-17T05:54:07.893Z,12.10
2022-08-17T05:56:35.213Z,12.57
2022-08-17T05:59:05.334Z,12.13
2022-08-17T06:01:47.640Z,12.15
2022-08-17T06:04:26.217Z,10.57
2022-08-17T06:06:58.937Z,12.05
2022-08-17T06:09:34.024Z,24.25
2022-08-17T06:12:19.939Z,13.63
2022-08-17T06:15:07.416Z,11.48
2022-08-17T06:17:34.716Z,10.55
2022-08-17T06:20:08.319Z,9.88
2022-08-17T06:22:38.655Z,10.63
2022-08-17T06:25:10.313Z,10.68
2022-08-17T06:27:40.851Z,11.02
2022-08-17T06:30:11.890Z,9.98
2022-08-17T06:32:40.243Z,10.50
2022-08-17T06:35:08.699Z,9.80
2022-08-17T06:37:48.798Z,9.95
2022-08-17T06:40:21.881Z,10.52
2022-08-17T06:43:05.396Z,10.45
2022-08-17T06:45:42.956Z,13.25
2022-08-17T06:48:24.396Z,10.70
2022-08-17T06:50:54.237Z,9.93
2022-08-17T06:53:26.359Z,11.43
2022-08-17T06:56:06.191Z,11.10
2022-08-17T07:01:10.485Z,10.85
2022-08-17T07:03:42.246Z,10.70
2022-08-17T07:06:13.098Z,10.05
2022-08-17T07:08:46.138Z,10.07
2022-08-17T07:11:19.245Z,11.20
2022-08-17T07:14:05.070Z,9.90
2022-08-17T07:16:38.380Z,10.15
2022-08-17T07:19:07.278Z,9.52
2022-08-17T07:21:40.852Z,10.50
2022-08-17T07:24:29.325Z,9.35
2022-08-17T07:27:11.368Z,9.48
2022-08-17T07:29:40.801Z,10.20
2022-08-17T07:32:08.940Z,9.20
2022-08-17T07:34:59.351Z,9.13
2022-08-17T07:37:26.519Z,9.73
2022-08-17T07:39:59.689Z,17.70
2022-08-17T07:42:46.675Z,10.02
2022-08-17T07:45:34.554Z,10.50
2022-08-17T07:48:19.998Z,8.50
2022-08-17T07:50:49.460Z,9.30
2022-08-17T07:53:24.997Z,9.60
2022-08-17T07:55:53.550Z,8.60
2022-08-17T07:58:22.812Z,10.07
2022-08-17T08:01:18.178Z,9.95
2022-08-17T08:03:46.429Z,9.68
2022-08-17T08:06:24.553Z,9.82
2022-08-17T08:08:53.116Z,9.48
2022-08-17T08:11:31.904Z,11.60
2022-08-17T08:14:18.164Z,10.57
2022-08-17T08:16:56.733Z,9.93
2022-08-17T08:19:25.955Z,11.38
2022-08-17T08:22:07.623Z,9.98
2022-08-17T08:24:40.542Z,10.02
2022-08-17T08:27:22.382Z,9.82
2022-08-17T08:29:55.167Z,10.10
2022-08-17T08:32:22.241Z,10.50
2022-08-17T08:35:04.846Z,9.77
2022-08-17T08:37:50.069Z,9.90
2022-08-17T08:40:20.494Z,10.70
2022-08-17T08:43:14.032Z,9.88
2022-08-17T08:45:56.611Z,10.05
2022-08-17T08:48:53.043Z,8.90
2022-08-17T08:51:30.319Z,9.27
2022-08-17T08:54:05.078Z,9.32
2022-08-17T08:56:32.185Z,9.63
2022-08-17T08:59:02.032Z,9.25
2022-08-17T09:01:38.087Z,9.27
2022-08-17T09:04:23.210Z,9.13
2022-08-17T09:07:14.962Z,8.68
2022-08-17T09:09:48.708Z,8.48
2022-08-17T09:12:25.898Z,9.13
2022-08-17T09:15:19.269Z,8.75
2022-08-17T09:17:49.537Z,8.75
2022-08-17T09:20:27.354Z,10.35
2022-08-17T09:23:08.295Z,9.65
2022-08-17T09:26:01.604Z,9.00
2022-08-17T09:28:34.866Z,9.32
2022-08-17T09:31:04.480Z,9.02
2022-08-17T09:33:34.483Z,9.27
2022-08-17T09:36:11.596Z,10.25
2022-08-17T09:38:45.737Z,8.68
2022-08-17T09:41:16.919Z,10.10
2022-08-17T09:43:49.906Z,8.60
2022-08-17T09:46:23.178Z,9.32
2022-08-17T09:49:09.816Z,9.55
2022-08-17T09:51:48.966Z,8.95
2022-08-17T09:54:38.607Z,9.50
2022-08-17T09:57:30.341Z,8.82
2022-08-17T10:00:17.263Z,8.68
2022-08-17T10:02:54.436Z,8.88
2022-08-17T10:05:39.639Z,9.27
2022-08-17T10:08:21.866Z,10.63
2022-08-17T10:11:07.727Z,13.35
2022-08-17T10:13:41.413Z,9.68
2022-08-17T10:16:20.610Z,8.60
2022-08-17T10:19:13.697Z,9.52
2022-08-17T10:22:32.454Z,8.13
2022-08-17T10:25:22.055Z,8.45
2022-08-17T10:28:20.120Z,8.85
2022-08-17T10:30:51.330Z,25.63
2022-08-17T10:33:23.491Z,14.32
2022-08-17T10:36:11.067Z,9.10
2022-08-17T10:38:47.897Z,9.02
2022-08-17T10:41:27.776Z,9.25
2022-08-17T10:44:39.095Z,9.10
2022-08-17T10:46:57.344Z,8.98
2022-08-17T10:49:26.347Z,8.30
2022-08-17T10:51:54.956Z,8.60
2022-08-17T10:54:25.115Z,8.68
2022-08-17T10:59:47.087Z,8.48
2022-08-17T11:02:23.265Z,9.40
2022-08-17T11:05:09.300Z,9.38
2022-08-17T11:07:39.651Z,9.00
2022-08-17T11:10:06.749Z,9.57
2022-08-17T11:12:37.570Z,9.95
2022-08-17T11:15:20.079Z,10.20
2022-08-17T11:18:09.468Z,10.38
2022-08-17T11:20:54.963Z,10.65
2022-08-17T11:23:25.849Z,11.27
2022-08-17T11:25:55.029Z,11.05
2022-08-17T11:28:34.381Z,10.30
2022-08-17T11:31:38.624Z,11.63
2022-08-17T11:34:26.241Z,11.50
2022-08-17T11:37:12.317Z,10.55
2022-08-17T11:39:42.456Z,10.13
2022-08-17T11:42:09.797Z,10.43
2022-08-17T11:44:42.990Z,10.02
2022-08-17T11:47:28.574Z,10.07
2022-08-17T11:50:32.425Z,11.48
2022-08-17T11:52:59.603Z,9.57
2022-08-17T11:55:38.464Z,11.30
2022-08-17T11:58:08.933Z,9.70
2022-08-17T12:00:59.181Z,10.32
2022-08-17T12:03:32.340Z,10.25
2022-08-17T12:06:19.543Z,10.02
2022-08-17T12:08:55.447Z,10.40
2022-08-17T12:12:04.589Z,10.68
2022-08-17T12:14:32.206Z,10.13
2022-08-17T12:17:11.040Z,10.43
2022-08-17T12:19:38.908Z,10.93
2022-08-17T12:22:10.459Z,10.82
2022-08-17T12:24:56.608Z,11.77
2022-08-17T12:28:02.046Z,16.48
2022-08-17T12:30:17.985Z,11.63
2022-08-17T12:32:47.674Z,11.40
2022-08-17T12:35:34.564Z,13.50
2022-08-17T12:38:02.099Z,11.60
2022-08-17T12:40:34.017Z,10.25
2022-08-17T12:43:02.665Z,10.82
2022-08-17T12:45:34.353Z,11.45
2022-08-17T12:48:09.151Z,10.15
2022-08-17T12:50:37.132Z,10.35
2022-08-17T12:53:04.357Z,10.02
2022-08-17T12:55:36.613Z,9.65
2022-08-17T12:58:03.893Z,10.98
2022-08-17T13:00:31.065Z,11.00
2022-08-17T13:03:00.232Z,10.90
2022-08-17T13:05:30.369Z,11.20
2022-08-17T13:07:59.508Z,14.70
2022-08-17T13:10:32.790Z,11.93
2022-08-17T13:13:05.167Z,11.43
2022-08-17T13:15:44.969Z,12.88
2022-08-17T13:18:31.042Z,12.25
2022-08-17T13:20:59.773Z,12.02
2022-08-17T13:23:29.169Z,12.35
2022-08-17T13:25:57.536Z,12.70
2022-08-17T13:28:33.593Z,12.20
2022-08-17T13:31:24.068Z,11.77
2022-08-17T13:33:51.208Z,12.27
2022-08-17T13:36:30.091Z,11.43
2022-08-17T13:39:16.150Z,11.63
2022-08-17T13:41:43.731Z,11.70
2022-08-17T13:44:29.732Z,12.38
2022-08-17T13:46:57.360Z,12.50
2022-08-17T13:49:24.631Z,11.48
2022-08-17T13:52:19.543Z,11.45
2022-08-17T13:54:52.837Z,12.13
2022-08-17T13:57:24.186Z,13.15
2022-08-17T13:59:55.749Z,11.98
2022-08-17T14:02:26.004Z,10.63
2022-08-17T14:04:55.542Z,10.25
2022-08-17T14:07:26.497Z,9.48
2022-08-17T14:09:54.777Z,8.95
2022-08-17T14:12:24.919Z,10.05
2022-08-17T14:14:52.935Z,8.68
2022-08-17T14:17:20.243Z,9.02
2022-08-17T14:19:48.059Z,8.48
2022-08-17T14:22:30.411Z,9.10
2022-08-17T14:24:58.472Z,9.35
2022-08-17T14:27:28.058Z,8.52
2022-08-17T14:29:56.360Z,8.33
2022-08-17T14:32:25.050Z,8.73
2022-08-17T14:34:52.431Z,8.50
2022-08-17T14:37:21.048Z,8.68
2022-08-17T14:39:48.326Z,8.68
2022-08-17T14:42:16.333Z,9.15
2022-08-17T14:44:43.476Z,8.65
2022-08-17T14:47:15.802Z,9.50
2022-08-17T14:49:43.636Z,8.93
2022-08-17T14:52:15.622Z,7.75
2022-08-17T14:54:46.065Z,8.02
2022-08-17T14:59:54.733Z,10.45
2022-08-17T15:02:22.880Z,8.85
2022-08-17T15:05:01.720Z,8.68
2022-08-17T15:07:30.435Z,8.60
2022-08-17T15:09:58.758Z,8.50
2022-08-17T15:12:32.383Z,8.90
2022-08-17T15:15:01.006Z,8.95
2022-08-17T15:17:44.552Z,8.50
2022-08-17T15:20:17.685Z,8.43
2022-08-17T15:22:46.173Z,8.93
2022-08-17T15:25:13.733Z,7.85
2022-08-17T15:27:40.962Z,11.43
2022-08-17T15:30:09.809Z,9.40
2022-08-17T15:32:38.238Z,8.30
2022-08-17T15:35:07.303Z,8.23
2022-08-17T15:37:34.548Z,9.15
2022-08-17T15:40:01.747Z,8.98
2022-08-17T15:42:29.342Z,7.80
2022-08-17T15:44:56.557Z,8.45
2022-08-17T15:47:23.969Z,16.90
2022-08-17T15:49:51.139Z,10.32
2022-08-17T15:52:23.810Z,8.35
2022-08-17T15:54:52.070Z,7.80
2022-08-17T15:57:19.928Z,8.02
2022-08-17T15:59:48.901Z,8.63
2022-08-17T16:03:44.914Z,15.05
2022-08-17T16:05:15.520Z,9.75
2022-08-17T16:07:46.053Z,8.75
2022-08-17T16:10:18.215Z,29.63
2022-08-17T16:12:46.765Z,9.77
2022-08-17T16:15:13.963Z,9.15
2022-08-17T16:17:41.787Z,8.88
2022-08-17T16:20:20.678Z,8.38
2022-08-17T16:22:49.166Z,7.95
2022-08-17T16:25:20.867Z,8.32
2022-08-17T16:27:50.416Z,7.95
2022-08-17T16:30:18.189Z,7.73
2022-08-17T16:32:45.957Z,8.88
2022-08-17T16:35:17.378Z,10.57
2022-08-17T16:37:47.960Z,9.00
2022-08-17T16:40:16.072Z,9.10
2022-08-17T16:42:43.554Z,8.48
2022-08-17T16:45:16.756Z,8.85
2022-08-17T16:47:44.347Z,9.07
2022-08-17T16:50:15.522Z,9.45
2022-08-17T16:52:42.985Z,8.05
2022-08-17T16:55:13.493Z,9.02
2022-08-17T17:00:17.603Z,9.05
2022-08-17T17:02:47.211Z,9.00
2022-08-17T17:05:14.421Z,9.10
2022-08-17T17:07:54.822Z,9.05
2022-08-17T17:10:29.287Z,8.63
2022-08-17T17:13:03.695Z,8.98
2022-08-17T17:15:51.242Z,8.98
2022-08-17T17:18:20.857Z,9.25
2022-08-17T17:20:55.359Z,11.23
2022-08-17T17:23:37.633Z,12.52
2022-08-17T17:26:04.752Z,11.95
2022-08-17T17:28:38.613Z,10.85
2022-08-17T17:31:17.409Z,10.60
2022-08-17T17:33:48.209Z,9.60
2022-08-17T17:36:35.638Z,10.65
2022-08-17T17:39:07.213Z,10.90
2022-08-17T17:41:36.801Z,10.43
2022-08-17T17:44:08.835Z,9.70
2022-08-17T17:46:38.081Z,10.75
2022-08-17T17:49:06.222Z,16.38
2022-08-17T17:51:54.692Z,13.40
2022-08-17T17:54:24.039Z,17.27
2022-08-17T17:56:54.977Z,11.77
2022-08-17T17:59:25.238Z,11.27
2022-08-17T18:02:01.191Z,11.13
2022-08-17T18:04:28.407Z,13.90
2022-08-17T18:07:04.907Z,13.07
2022-08-17T18:09:51.828Z,11.27
2022-08-17T18:12:27.862Z,11.40
2022-08-17T18:15:04.520Z,12.50
2022-08-17T18:17:31.748Z,11.30
2022-08-17T18:19:58.958Z,12.00
2022-08-17T18:22:27.716Z,10.70
2022-08-17T18:24:56.100Z,11.30
2022-08-17T18:27:23.383Z,11.27
2022-08-17T18:29:52.746Z,11.05
2022-08-17T18:32:22.742Z,10.77
2022-08-17T18:35:10.244Z,10.90
2022-08-17T18:37:37.495Z,11.05
2022-08-17T18:40:17.089Z,11.57
2022-08-17T18:42:56.495Z,11.82
2022-08-17T18:45:35.605Z,11.50
2022-08-17T18:48:02.862Z,13.68
2022-08-17T18:50:41.371Z,12.55
2022-08-17T18:53:30.340Z,12.93
2022-08-17T18:56:16.668Z,12.73
2022-08-17T18:58:50.749Z,12.68
2022-08-17T19:01:19.191Z,13.00
2022-08-17T19:03:46.938Z,12.30
2022-08-17T19:06:22.752Z,13.18
2022-08-17T19:08:49.973Z,13.80
2022-08-17T19:11:17.171Z,12.98
2022-08-17T19:13:53.151Z,13.60
2022-08-17T19:16:20.298Z,14.20
2022-08-17T19:18:57.892Z,15.05
2022-08-17T19:21:34.813Z,15.93
2022-08-17T19:24:14.242Z,17.48
2022-08-17T19:26:53.267Z,15.38
2022-08-17T19:29:29.854Z,17.27
2022-08-17T19:31:58.641Z,17.60
2022-08-17T19:34:33.323Z,18.35
2022-08-17T19:37:03.792Z,18.33
2022-08-17T19:39:54.291Z,19.20
2022-08-17T19:42:21.575Z,20.17
2022-08-17T19:44:58.244Z,18.33
2022-08-17T19:47:54.329Z,17.75
2022-08-17T19:50:39.032Z,18.30
2022-08-17T19:53:36.655Z,17.80
2022-08-17T19:56:31.676Z,18.02
2022-08-17T19:58:58.893Z,18.27
2022-08-17T20:01:44.607Z,19.77
2022-08-17T20:04:31.861Z,19.83
2022-08-17T20:07:13.719Z,21.55
2022-08-17T20:12:15.901Z,21.65
2022-08-17T20:14:55.079Z,24.38
2022-08-17T20:17:25.404Z,24.60
2022-08-17T20:20:01.321Z,25.50
2022-08-17T20:22:34.755Z,24.77
2022-08-17T20:25:30.046Z,23.77
2022-08-17T20:28:05.939Z,23.30
2022-08-17T20:30:41.670Z,21.63
2022-08-17T20:33:25.935Z,21.48
2022-08-17T20:36:16.992Z,23.13
2022-08-17T20:38:46.794Z,22.48
2022-08-17T20:41:20.757Z,21.27
2022-08-17T20:43:52.104Z,21.63
2022-08-17T20:46:54.758Z,22.17
2022-08-17T20:49:32.008Z,22.13
2022-08-17T20:52:02.593Z,23.85
2022-08-17T20:54:30.400Z,23.95
2022-08-17T20:56:59.108Z,23.40
2022-08-17T20:59:27.527Z,23.52
2022-08-17T21:02:12.372Z,23.00
2022-08-17T21:04:52.278Z,22.80
2022-08-17T21:07:54.299Z,24.45
2022-08-17T21:10:24.278Z,24.92
2022-08-17T21:12:59.350Z,24.80
2022-08-17T21:15:59.025Z,24.05
2022-08-17T21:18:44.881Z,23.13
2022-08-17T21:21:19.885Z,23.48
2022-08-17T21:24:05.386Z,24.73
2022-08-17T21:26:39.638Z,22.55
2022-08-17T21:29:31.706Z,23.90
2022-08-17T21:32:00.619Z,24.65
2022-08-17T21:34:38.917Z,23.25
2022-08-17T21:37:24.046Z,24.65
2022-08-17T21:39:53.370Z,22.73
2022-08-17T21:42:25.640Z,23.27
2022-08-17T21:44:54.983Z,22.17
2022-08-17T21:47:25.138Z,24.60
2022-08-17T21:49:53.100Z,24.80
2022-08-17T21:52:21.786Z,23.98
2022-08-17T21:54:51.059Z,25.00
2022-08-17T21:57:22.898Z,24.60
2022-08-17T21:59:54.432Z,24.27
2022-08-17T22:02:23.377Z,22.73
2022-08-17T22:05:01.218Z,22.48
2022-08-17T22:07:36.507Z,22.80
2022-08-17T22:10:04.881Z,23.00
2022-08-17T22:12:32.030Z,24.23
2022-08-17T22:15:00.646Z,23.90
2022-08-17T22:17:27.939Z,24.45
2022-08-17T22:19:56.788Z,24.23
2022-08-17T22:22:32.459Z,23.92
2022-08-17T22:25:07.937Z,24.02
2022-08-17T22:28:04.247Z,25.48
2022-08-17T22:30:37.288Z,25.30
2022-08-17T22:33:23.368Z,25.55
2022-08-17T22:36:09.401Z,27.08
2022-08-17T22:38:38.285Z,26.15
2022-08-17T22:41:17.823Z,26.98
2022-08-17T22:43:45.075Z,24.30
2022-08-17T22:46:12.837Z,25.40
2022-08-17T22:48:46.616Z,25.80
2022-08-17T22:51:14.943Z,25.77
2022-08-17T22:54:13.161Z,25.10
2022-08-17T22:57:06.517Z,24.88
2022-08-17T23:00:01.058Z,25.67
2022-08-17T23:02:33.244Z,26.10
2022-08-17T23:05:16.650Z,24.77
2022-08-17T23:07:45.234Z,24.70
2022-08-17T23:10:13.145Z,24.55
2022-08-17T23:12:40.620Z,25.30
2022-08-17T23:15:19.237Z,24.90
2022-08-17T23:17:46.725Z,24.67
2022-08-17T23:20:14.988Z,23.50
2022-08-17T23:22:51.382Z,24.30
2022-08-17T23:25:25.660Z,25.65
2022-08-17T23:27:53.162Z,25.55
2022-08-17T23:30:20.558Z,25.45
2022-08-17T23:32:53.872Z,25.73
2022-08-17T23:35:39.601Z,24.27
2022-08-17T23:38:08.710Z,24.63
2022-08-17T23:40:35.887Z,27.05
2022-08-17T23:43:11.518Z,25.38
2022-08-17T23:45:52.090Z,22.17
2022-08-17T23:48:32.554Z,22.95
2022-08-17T23:51:04.093Z,22.75
2022-08-17T23:53:34.735Z,24.67
2022-08-17T23:56:09.821Z,21.65
2022-08-17T23:58:38.866Z,21.70
